Time;durP1;ratioP1;P1;durP2;ratioP2;P2;SDS_P1;SDS_P2;PMS_P1;PMS_P2;Temp;Humidity;BMP_temperature;BMP_pressure;BME280_temperature;BME280_humidity;BME280_pressure;Samples;Min_cycle;Max_cycle;Signal;HPM_P1;HPM_P2
2023/06/02 00:01:14;;;;;;;9.57;3.25;;;;;;;12.32;68.44;102095.09;5032785;28;20105;-81
2023/06/02 00:03:40;;;;;;;13.48;3.60;;;;;;;12.22;68.13;102067.31;5035846;28;20471;-81
2023/06/02 00:06:11;;;;;;;9.35;3.03;;;;;;;12.26;68.07;102084.84;5034270;28;20029;-82
2023/06/02 00:08:40;;;;;;;8.50;2.78;;;;;;;12.29;68.20;102091.75;5032117;28;20036;-82
2023/06/02 00:11:08;;;;;;;11.38;3.22;;;;;;;12.26;68.52;102095.50;5036647;28;20029;-81
2023/06/02 00:13:33;;;;;;;9.93;3.35;;;;;;;12.22;67.83;102080.63;5036354;28;20029;-81
2023/06/02 00:16:00;;;;;;;5.95;3.03;;;;;;;12.22;68.13;102085.97;5036169;28;20033;-82
2023/06/02 00:18:26;;;;;;;8.27;3.10;;;;;;;12.21;67.94;102084.28;5036993;28;20044;-82
2023/06/02 00:20:52;;;;;;;6.63;3.53;;;;;;;12.17;67.66;102082.75;5038418;28;20041;-82
2023/06/02 00:23:18;;;;;;;7.40;3.10;;;;;;;12.17;67.57;102091.63;5052654;28;20037;-81
2023/06/02 00:25:44;;;;;;;9.98;3.65;;;;;;;12.19;67.79;102095.03;5051136;28;20032;-81
2023/06/02 00:28:10;;;;;;;12.55;3.05;;;;;;;12.23;67.45;102093.03;5040990;28;20111;-81
2023/06/02 00:30:35;;;;;;;7.38;2.83;;;;;;;12.13;67.52;102086.56;5040153;28;20021;-82
2023/06/02 00:33:01;;;;;;;10.23;3.20;;;;;;;12.09;67.46;102088.56;5040722;28;20052;-82
2023/06/02 00:35:27;;;;;;;9.23;3.53;;;;;;;12.05;68.07;102080.88;5042750;28;20079;-81
2023/06/02 00:37:52;;;;;;;8.40;3.17;;;;;;;12.06;67.64;102087.88;5037793;28;20479;-81
2023/06/02 00:40:18;;;;;;;10.25;3.70;;;;;;;12.08;67.58;102088.66;5043139;28;20025;-81
2023/06/02 00:42:43;;;;;;;7.78;3.17;;;;;;;12.07;66.83;102087.78;5043718;28;20028;-81
2023/06/02 00:45:09;;;;;;;10.98;3.10;;;;;;;12.06;66.88;102090.56;5043215;28;20091;-81
2023/06/02 00:47:34;;;;;;;8.80;3.42;;;;;;;12.11;67.37;102088.47;5041624;28;20077;-81
2023/06/02 00:50:00;;;;;;;8.50;3.00;;;;;;;12.08;66.52;102086.00;5042181;28;20022;-82
2023/06/02 00:52:26;;;;;;;10.30;3.20;;;;;;;12.05;66.31;102083.53;5042470;28;20052;-81
2023/06/02 00:54:53;;;;;;;9.57;3.10;;;;;;;12.01;65.77;102080.22;5042974;28;20025;-81
2023/06/02 00:57:18;;;;;;;7.32;2.92;;;;;;;11.95;66.60;102075.25;5034984;28;20029;-82
2023/06/02 00:59:44;;;;;;;12.05;3.47;;;;;;;11.96;66.20;102084.97;5038095;28;20032;-81
2023/06/02 01:02:10;;;;;;;7.65;3.25;;;;;;;11.95;66.69;102084.09;5043031;28;20378;-81
2023/06/02 01:04:37;;;;;;;8.95;3.20;;;;;;;11.95;66.84;102088.56;5042964;28;20116;-82
2023/06/02 01:07:04;;;;;;;9.05;3.30;;;;;;;11.98;66.18;102089.22;5041307;28;20029;-82
2023/06/02 01:09:30;;;;;;;10.98;3.60;;;;;;;11.89;65.78;102080.94;5039342;28;20032;-82
2023/06/02 01:11:56;;;;;;;14.30;3.47;;;;;;;11.95;65.07;102091.25;5042347;28;20029;-81
2023/06/02 01:14:22;;;;;;;14.13;3.25;;;;;;;11.94;65.89;102095.72;5040424;28;20038;-81
2023/06/02 01:16:49;;;;;;;14.52;3.67;;;;;;;11.87;65.44;102091.66;5040743;28;20032;-81
2023/06/02 01:19:14;;;;;;;10.80;3.25;;;;;;;11.89;65.02;102092.47;5042422;28;20392;-82
2023/06/02 01:21:47;;;;;;;12.07;3.78;;;;;;;11.88;65.09;102092.56;5040538;28;20048;-82
2023/06/02 01:24:14;;;;;;;8.18;3.00;;;;;;;11.88;65.51;102088.06;5042173;28;20029;-81
2023/06/02 01:26:40;;;;;;;12.05;3.40;;;;;;;11.78;64.58;102081.63;5041872;28;20068;-81
2023/06/02 01:29:05;;;;;;;13.38;3.70;;;;;;;11.75;64.74;102093.28;5041927;28;20029;-82
2023/06/02 01:31:36;;;;;;;11.73;3.63;;;;;;;11.65;64.22;102087.66;5042679;28;20117;-82
2023/06/02 01:34:19;;;;;;;13.27;3.97;;;;;;;11.65;64.98;102100.97;5042152;28;20522;-81
2023/06/02 01:36:48;;;;;;;11.60;3.40;;;;;;;11.57;64.65;102091.75;5042180;28;20029;-81
2023/06/02 01:39:16;;;;;;;12.70;4.07;;;;;;;11.63;64.75;102096.72;5041824;28;20029;-81
2023/06/02 01:41:45;;;;;;;13.48;3.80;;;;;;;11.61;64.83;102088.81;5040274;28;20026;-82
2023/06/02 01:44:11;;;;;;;15.38;3.80;;;;;;;11.61;65.12;102085.31;5041630;28;20045;-82
2023/06/02 01:46:39;;;;;;;14.30;4.20;;;;;;;11.59;65.44;102093.41;5041145;28;20059;-82
2023/06/02 01:49:13;;;;;;;15.77;3.80;;;;;;;11.59;65.42;102088.06;5041781;28;20029;-81
2023/06/02 01:51:38;;;;;;;20.10;3.83;;;;;;;11.60;65.18;102088.91;5042225;28;20491;-81
2023/06/02 01:54:04;;;;;;;12.73;3.95;;;;;;;11.62;65.42;102087.88;5042143;28;20059;-81
2023/06/02 01:56:29;;;;;;;13.43;3.58;;;;;;;11.56;65.33;102069.63;5031471;28;20046;-81
2023/06/02 01:58:55;;;;;;;11.93;3.55;;;;;;;11.62;65.65;102087.00;5040249;28;20036;-81
2023/06/02 02:01:21;;;;;;;14.38;3.72;;;;;;;11.59;65.11;102080.09;5041646;28;20026;-81
2023/06/02 02:03:46;;;;;;;13.00;3.55;;;;;;;11.59;65.04;102077.44;5041078;28;20021;-81
2023/06/02 02:06:12;;;;;;;12.73;3.90;;;;;;;11.55;65.08;102069.72;5041476;28;20099;-81
2023/06/02 02:08:37;;;;;;;12.45;3.60;;;;;;;11.57;65.27;102073.97;5041413;28;20505;-81
2023/06/02 02:11:02;;;;;;;16.38;4.20;;;;;;;11.63;65.56;102081.59;5040893;28;20108;-80
2023/06/02 02:13:28;;;;;;;15.38;3.97;;;;;;;11.61;65.30;102070.19;5041504;28;20049;-81
2023/06/02 02:15:53;;;;;;;15.40;3.70;;;;;;;11.58;65.13;102089.00;5025430;28;20061;-81
2023/06/02 02:18:20;;;;;;;18.42;3.95;;;;;;;11.58;65.31;102089.00;5042217;28;20087;-81
2023/06/02 02:20:45;;;;;;;14.75;3.90;;;;;;;11.53;66.10;102087.59;5041582;28;20099;-81
2023/06/02 02:23:11;;;;;;;18.70;4.43;;;;;;;11.56;65.86;102088.25;5041631;28;20113;-81
2023/06/02 02:25:36;;;;;;;14.18;3.58;;;;;;;11.53;66.26;102084.94;5041303;28;20057;-81
2023/06/02 02:28:01;;;;;;;10.55;3.50;;;;;;;11.55;66.80;102089.19;5044923;28;20049;-81
2023/06/02 02:30:26;;;;;;;14.15;4.00;;;;;;;11.59;67.18;102082.75;5054022;28;20033;-81
2023/06/02 02:32:55;;;;;;;11.13;3.70;;;;;;;11.58;66.77;102075.69;5054785;28;20033;-81
2023/06/02 02:35:20;;;;;;;16.80;4.33;;;;;;;11.59;66.76;102073.88;5055835;28;20035;-81
2023/06/02 02:37:46;;;;;;;12.43;3.92;;;;;;;11.49;66.93;102068.31;5048978;28;20065;-81
2023/06/02 02:40:11;;;;;;;14.32;4.10;;;;;;;11.60;66.83;102078.28;5039867;28;20503;-81
2023/06/02 02:42:36;;;;;;;13.38;3.65;;;;;;;11.50;67.15;102061.16;5041456;28;20443;-82
2023/06/02 02:45:02;;;;;;;13.60;3.75;;;;;;;11.56;67.27;102085.59;5028007;28;20026;-82
2023/06/02 02:47:28;;;;;;;15.82;4.22;;;;;;;11.54;66.95;102068.88;5036061;28;20040;-81
2023/06/02 02:49:53;;;;;;;14.68;3.88;;;;;;;11.60;67.29;102076.47;5041405;28;20037;-82
2023/06/02 02:52:20;;;;;;;11.65;4.18;;;;;;;11.56;67.22;102069.63;5039198;28;20022;-81
2023/06/02 02:54:45;;;;;;;12.80;4.00;;;;;;;11.50;67.42;102070.00;5036428;28;20046;-81
2023/06/02 02:57:11;;;;;;;11.63;3.83;;;;;;;11.50;67.01;102067.34;5039923;28;20052;-81
2023/06/02 02:59:36;;;;;;;14.40;4.60;;;;;;;11.43;67.48;102068.66;5040058;28;20033;-81
2023/06/02 03:02:06;;;;;;;15.02;4.15;;;;;;;11.47;67.72;102073.72;5038104;28;20491;-81
2023/06/02 03:04:32;;;;;;;19.63;3.92;;;;;;;11.36;67.87;102054.88;5033629;28;20029;-81
2023/06/02 03:06:58;;;;;;;11.90;3.67;;;;;;;11.41;68.69;102073.22;5038689;28;20383;-81
2023/06/02 03:09:23;;;;;;;9.93;4.05;;;;;;;11.40;68.60;102071.50;5040250;28;20025;-81
2023/06/02 03:11:48;;;;;;;14.48;3.78;;;;;;;11.47;68.84;102073.72;5040714;28;20040;-81
2023/06/02 03:14:14;;;;;;;13.55;4.50;;;;;;;11.47;69.07;102076.38;5040684;28;20093;-81
2023/06/02 03:16:41;;;;;;;12.82;3.55;;;;;;;11.48;69.09;102085.19;5040766;28;20029;-81
2023/06/02 03:19:13;;;;;;;11.32;3.95;;;;;;;11.42;68.97;102073.13;5040168;28;20041;-81
2023/06/02 03:21:43;;;;;;;12.95;3.90;;;;;;;11.46;69.98;102079.97;5039881;28;20495;-81
2023/06/02 03:24:10;;;;;;;16.10;3.85;;;;;;;11.40;69.57;102071.50;5034641;28;20395;-81
2023/06/02 03:26:37;;;;;;;11.85;3.65;;;;;;;11.42;68.93;102081.13;5041124;28;20026;-81
2023/06/02 03:29:02;;;;;;;13.73;4.15;;;;;;;11.41;68.92;102090.03;5032970;28;20047;-81
2023/06/02 03:31:28;;;;;;;13.95;3.83;;;;;;;11.39;69.29;102077.75;5039959;28;20496;-81
2023/06/02 03:33:54;;;;;;;16.30;4.15;;;;;;;11.39;68.40;102086.63;5038864;28;20021;-80
2023/06/02 03:36:19;;;;;;;16.65;4.13;;;;;;;11.36;68.36;102088.59;5031246;28;20427;-80
2023/06/02 03:38:45;;;;;;;13.65;3.95;;;;;;;11.34;68.18;102094.03;5040097;28;20068;-80
2023/06/02 03:41:10;;;;;;;16.67;4.07;;;;;;;11.28;67.71;102084.59;5040256;28;20025;-80
2023/06/02 03:43:35;;;;;;;14.00;3.72;;;;;;;11.33;67.78;102094.13;5053255;28;20056;-80
2023/06/02 03:46:01;;;;;;;12.57;3.72;;;;;;;11.28;68.19;102097.03;5052644;28;20052;-81
2023/06/02 03:48:26;;;;;;;15.20;3.92;;;;;;;11.27;67.74;102093.53;5044940;28;20025;-82
2023/06/02 03:50:51;;;;;;;13.65;3.35;;;;;;;11.28;67.71;102097.03;5041040;28;20022;-82
2023/06/02 03:53:17;;;;;;;10.95;3.65;;;;;;;11.30;67.36;102101.31;5048738;28;20052;-82
2023/06/02 03:55:42;;;;;;;16.67;3.72;;;;;;;11.28;68.04;102097.03;5040602;28;20029;-82
2023/06/02 03:58:07;;;;;;;16.20;4.03;;;;;;;11.26;67.81;102091.81;5044331;28;20107;-82
2023/06/02 04:00:32;;;;;;;15.27;4.00;;;;;;;11.26;67.99;102099.78;5041053;28;20036;-81
2023/06/02 04:02:59;;;;;;;13.43;3.70;;;;;;;11.14;67.38;102079.25;5039813;28;20029;-81
2023/06/02 04:05:24;;;;;;;17.92;4.40;;;;;;;11.22;67.71;102095.56;5040792;28;20057;-81
2023/06/02 04:07:49;;;;;;;13.57;3.80;;;;;;;11.23;68.22;102104.44;5039618;28;20357;-81
2023/06/02 04:10:15;;;;;;;17.25;4.00;;;;;;;11.22;68.56;102108.88;5043222;28;20029;-81
2023/06/02 04:12:40;;;;;;;10.07;3.85;;;;;;;11.17;68.46;102102.97;5043842;28;20183;-81
2023/06/02 04:15:06;;;;;;;10.80;3.85;;;;;;;11.16;68.37;102103.94;5043567;28;20040;-81
2023/06/02 04:17:31;;;;;;;15.98;3.67;;;;;;;11.13;68.50;102097.94;5044613;28;20026;-81
2023/06/02 04:19:56;;;;;;;17.40;3.88;;;;;;;11.17;68.27;102105.63;5042771;28;20057;-82
2023/06/02 04:22:22;;;;;;;13.57;3.80;;;;;;;11.16;67.82;102103.94;5043124;28;20108;-81
2023/06/02 04:24:48;;;;;;;17.00;3.83;;;;;;;11.14;67.37;102113.81;5043640;28;20069;-82
2023/06/02 04:27:16;;;;;;;10.60;3.45;;;;;;;11.14;67.72;102108.50;5043867;28;20033;-81
2023/06/02 04:29:41;;;;;;;13.10;3.38;;;;;;;11.12;67.61;102105.06;5044943;28;20093;-81
2023/06/02 04:32:07;;;;;;;9.10;3.78;;;;;;;11.12;67.34;102105.06;5036864;28;20026;-81
2023/06/02 04:34:32;;;;;;;10.98;3.20;;;;;;;11.11;67.31;102095.38;5032025;28;20559;-81
2023/06/02 04:36:58;;;;;;;13.48;4.25;;;;;;;11.07;66.59;102105.34;5038978;28;20029;-82
2023/06/02 04:39:23;;;;;;;12.20;3.00;;;;;;;11.01;66.65;102097.72;5046095;28;20037;-81
2023/06/02 04:41:49;;;;;;;11.88;3.72;;;;;;;11.01;66.82;102103.03;5044029;28;20459;-81
2023/06/02 04:44:16;;;;;;;12.60;3.60;;;;;;;10.99;65.81;102106.72;5043386;28;20026;-81
2023/06/02 04:46:42;;;;;;;11.98;3.22;;;;;;;10.95;66.16;102105.19;5042306;28;20052;-80
2023/06/02 04:49:07;;;;;;;8.77;3.35;;;;;;;10.99;66.96;102107.59;5039477;28;20032;-82
2023/06/02 04:51:33;;;;;;;12.18;2.97;;;;;;;11.00;66.59;102108.44;5039619;28;20026;-82
2023/06/02 04:53:58;;;;;;;8.95;3.35;;;;;;;10.93;66.74;102098.16;5020624;28;20053;-82
2023/06/02 04:56:26;;;;;;;12.50;3.53;;;;;;;10.91;66.83;102105.38;5033500;28;20037;-82
2023/06/02 04:58:52;;;;;;;9.45;3.22;;;;;;;10.97;67.16;102111.28;5051422;28;20082;-82
2023/06/02 05:01:17;;;;;;;16.80;3.63;;;;;;;10.96;66.68;102107.78;5059132;28;20029;-82
2023/06/02 05:03:43;;;;;;;10.52;3.53;;;;;;;10.90;66.75;102108.97;5053553;28;20438;-82
2023/06/02 05:06:08;;;;;;;11.77;3.42;;;;;;;10.95;66.23;102119.34;5048302;28;20029;-81
2023/06/02 05:08:33;;;;;;;11.15;3.50;;;;;;;10.90;66.64;102114.28;5052531;28;20032;-81
2023/06/02 05:10:59;;;;;;;13.73;3.72;;;;;;;11.02;66.73;102125.16;5041284;28;20037;-81
2023/06/02 05:13:24;;;;;;;11.05;2.92;;;;;;;11.04;66.47;102128.56;5040267;28;20048;-82
2023/06/02 05:15:49;;;;;;;13.00;3.70;;;;;;;11.03;66.75;102122.41;5041024;28;20471;-82
2023/06/02 05:18:16;;;;;;;14.95;3.90;;;;;;;11.07;67.54;102123.97;5022428;28;20025;-82
2023/06/02 05:20:41;;;;;;;12.75;3.80;;;;;;;11.07;66.42;102123.97;5031687;28;20049;-81
2023/06/02 05:23:07;;;;;;;8.40;2.90;;;;;;;11.07;66.39;102128.41;5041386;28;20033;-81
2023/06/02 05:25:33;;;;;;;8.55;2.90;;;;;;;11.08;66.43;102136.28;5030672;28;20030;-81
2023/06/02 05:27:58;;;;;;;10.88;3.90;;;;;;;11.06;66.16;102132.88;5029946;28;20061;-81
2023/06/02 05:30:23;;;;;;;12.05;2.95;;;;;;;11.07;66.38;102131.94;5048516;28;20028;-81
2023/06/02 05:32:48;;;;;;;18.42;3.22;;;;;;;11.06;65.60;102124.03;5043234;28;20452;-82
2023/06/02 05:35:14;;;;;;;10.10;3.13;;;;;;;11.03;65.99;102122.41;5043191;28;20044;-82
2023/06/02 05:37:39;;;;;;;13.40;3.95;;;;;;;11.10;65.44;102133.53;5038763;28;20026;-82
2023/06/02 05:40:05;;;;;;;10.85;3.08;;;;;;;11.06;65.46;102122.22;5043194;28;20027;-82
2023/06/02 05:42:30;;;;;;;9.90;2.83;;;;;;;11.04;65.25;102121.47;5039927;28;20390;-81
2023/06/02 05:44:55;;;;;;;14.20;4.00;;;;;;;11.15;65.39;102125.31;5038313;28;20029;-81
2023/06/02 05:47:21;;;;;;;10.90;2.75;;;;;;;11.15;65.54;102125.31;5042194;28;20028;-81
2023/06/02 05:49:46;;;;;;;13.60;3.58;;;;;;;11.07;64.90;102123.09;5041905;28;20097;-82
2023/06/02 05:52:11;;;;;;;13.40;3.83;;;;;;;11.12;65.28;102123.66;5041093;28;20178;-82
2023/06/02 05:54:37;;;;;;;9.52;2.97;;;;;;;11.09;65.38;102121.19;5040929;28;20029;-81
2023/06/02 05:57:03;;;;;;;12.02;3.13;;;;;;;11.10;65.38;102128.22;5040793;28;20123;-83
2023/06/02 05:59:28;;;;;;;14.90;3.30;;;;;;;11.13;65.88;102124.53;5041730;28;20057;-83
2023/06/02 06:01:53;;;;;;;11.77;3.22;;;;;;;11.19;66.42;102129.47;5046978;28;20093;-83
2023/06/02 06:04:19;;;;;;;13.70;3.55;;;;;;;11.25;65.90;102135.28;5040943;28;20029;-83
2023/06/02 06:06:44;;;;;;;11.57;2.80;;;;;;;11.27;65.93;102138.75;5041778;28;20021;-83
2023/06/02 06:09:10;;;;;;;10.32;3.03;;;;;;;11.24;65.48;102130.06;5040241;28;20029;-83
2023/06/02 06:11:36;;;;;;;14.27;3.47;;;;;;;11.25;66.12;102122.00;5035806;28;20591;-83
2023/06/02 06:14:02;;;;;;;16.50;4.07;;;;;;;11.23;65.76;102121.25;5035427;28;20033;-83
2023/06/02 06:16:28;;;;;;;14.73;3.15;;;;;;;11.33;66.12;102134.84;5030592;28;20037;-82
2023/06/02 06:18:55;;;;;;;13.98;3.20;;;;;;;11.35;65.83;102135.63;5036333;28;20036;-82
2023/06/02 06:21:20;;;;;;;14.07;3.40;;;;;;;11.32;65.82;102124.31;5041993;28;20578;-82
2023/06/02 06:23:45;;;;;;;13.30;3.95;;;;;;;11.34;64.28;102136.59;5039982;28;20037;-82
2023/06/02 06:26:10;;;;;;;12.32;3.40;;;;;;;11.31;64.23;102131.44;5044927;28;20049;-82
2023/06/02 06:28:36;;;;;;;12.00;3.15;;;;;;;11.34;63.98;102141.91;5040130;28;20026;-82
2023/06/02 06:31:01;;;;;;;11.65;3.38;;;;;;;11.30;64.13;102143.84;5038521;28;20410;-83
2023/06/02 06:33:27;;;;;;;16.38;3.55;;;;;;;11.28;63.87;102142.25;5042586;28;20037;-83
2023/06/02 06:35:53;;;;;;;13.45;3.25;;;;;;;11.25;63.93;102140.63;5031057;28;20045;-83
2023/06/02 06:38:18;;;;;;;15.63;3.50;;;;;;;11.27;64.05;102144.06;5039948;28;20040;-84
2023/06/02 06:40:44;;;;;;;12.55;3.88;;;;;;;11.32;64.27;102134.94;5038354;28;20029;-84
2023/06/02 06:43:10;;;;;;;12.18;3.20;;;;;;;11.41;64.45;102142.41;5036726;28;20036;-80
2023/06/02 06:45:35;;;;;;;12.13;3.10;;;;;;;11.38;63.80;102137.25;5039447;28;20037;-82
2023/06/02 06:48:00;;;;;;;13.93;3.20;;;;;;;11.42;63.67;102131.66;5024459;28;20085;-82
2023/06/02 06:50:26;;;;;;;10.93;2.88;;;;;;;11.51;64.34;102140.91;5027300;28;20057;-82
2023/06/02 06:52:51;;;;;;;15.40;3.00;;;;;;;11.57;65.06;102139.66;5030634;28;20025;-82
2023/06/02 06:55:16;;;;;;;19.42;3.47;;;;;;;11.63;63.85;102142.81;5038845;28;20064;-81
2023/06/02 06:57:42;;;;;;;12.05;3.30;;;;;;;11.63;64.25;102132.16;5027517;28;20075;-81
2023/06/02 07:00:08;;;;;;;15.60;3.10;;;;;;;11.69;63.55;102138.94;5039009;28;20195;-81
2023/06/02 07:02:33;;;;;;;13.48;3.63;;;;;;;11.76;63.95;102137.59;5045009;28;20033;-81
2023/06/02 07:04:59;;;;;;;23.60;3.35;;;;;;;11.77;62.68;102141.09;5047732;28;20104;-82
2023/06/02 07:07:24;;;;;;;12.40;3.00;;;;;;;11.82;62.80;102139.03;5034509;28;20410;-81
2023/06/02 07:09:50;;;;;;;12.05;3.85;;;;;;;11.84;62.60;102143.31;5036268;28;20050;-82
2023/06/02 07:12:15;;;;;;;14.10;3.58;;;;;;;11.87;61.90;102149.41;5029920;28;20056;-81
2023/06/02 07:14:40;;;;;;;14.88;3.55;;;;;;;11.85;61.98;102141.50;5030983;28;20428;-80
2023/06/02 07:17:06;;;;;;;15.57;4.30;;;;;;;11.97;62.59;102143.47;5039927;28;20041;-80
2023/06/02 07:19:31;;;;;;;19.48;3.50;;;;;;;12.00;62.46;102145.06;5038206;28;20042;-80
2023/06/02 07:21:56;;;;;;;10.35;3.60;;;;;;;11.97;61.48;102146.13;5039674;28;20018;-81
2023/06/02 07:24:21;;;;;;;12.33;3.20;;;;;;;11.99;61.11;102138.00;5039230;28;20154;-81
2023/06/02 07:26:47;;;;;;;14.73;2.92;;;;;;;11.97;60.24;102140.78;5031534;28;20298;-82
2023/06/02 07:29:12;;;;;;;12.52;3.00;;;;;;;12.08;60.39;102158.75;5025635;28;20403;-82
2023/06/02 07:31:37;;;;;;;11.93;3.25;;;;;;;12.09;60.98;102155.16;5040637;28;20030;-82
2023/06/02 07:34:03;;;;;;;11.32;2.95;;;;;;;12.15;60.47;102154.75;5046980;28;20531;-82
2023/06/02 07:36:28;;;;;;;13.57;3.22;;;;;;;12.24;61.08;102164.00;5047667;28;20034;-81
2023/06/02 07:38:54;;;;;;;12.13;3.08;;;;;;;12.27;60.28;102152.28;5046423;28;20085;-82
2023/06/02 07:41:20;;;;;;;12.70;2.80;;;;;;;12.31;59.90;102157.31;5043956;28;20030;-81
2023/06/02 07:43:46;;;;;;;13.30;3.40;;;;;;;12.32;59.77;102155.50;5041005;28;20535;-81
2023/06/02 07:46:11;;;;;;;13.50;3.75;;;;;;;12.38;60.25;102153.31;5043168;28;20052;-82
2023/06/02 07:48:36;;;;;;;9.85;2.67;;;;;;;12.49;60.10;102159.75;5042961;28;20336;-81
2023/06/02 07:51:02;;;;;;;11.80;3.92;;;;;;;12.48;59.31;102145.59;5043843;28;20452;-82
2023/06/02 07:53:29;;;;;;;13.43;3.30;;;;;;;12.61;60.19;102144.78;5026975;28;20029;-81
2023/06/02 07:55:54;;;;;;;12.32;3.05;;;;;;;12.65;59.28;102152.50;5036319;28;20030;-83
2023/06/02 07:58:20;;;;;;;20.10;3.30;;;;;;;12.72;59.24;102145.84;5040663;28;20022;-82
2023/06/02 08:00:45;;;;;;;15.23;3.45;;;;;;;12.84;59.83;102137.97;5033634;28;20033;-81
2023/06/02 08:03:10;;;;;;;10.60;3.38;;;;;;;13.00;59.41;102149.34;5041804;28;20104;-81
2023/06/02 08:05:36;;;;;;;9.88;2.80;;;;;;;13.01;58.32;102144.88;5041594;28;20033;-82
2023/06/02 08:08:01;;;;;;;11.32;3.08;;;;;;;13.09;57.63;102150.53;5041671;28;20601;-82
2023/06/02 08:10:27;;;;;;;11.68;3.55;;;;;;;13.15;57.47;102150.13;5044430;28;20053;-81
2023/06/02 08:12:52;;;;;;;12.63;3.10;;;;;;;13.23;57.40;102145.13;5043498;28;20021;-82
2023/06/02 08:15:17;;;;;;;9.93;3.42;;;;;;;13.28;57.30;102142.19;5043549;28;20009;-81
2023/06/02 08:17:43;;;;;;;13.75;3.33;;;;;;;13.35;56.81;102139.97;5042503;28;20101;-83
2023/06/02 08:20:08;;;;;;;9.30;2.72;;;;;;;13.41;56.04;102143.09;5041986;28;20060;-83
2023/06/02 08:22:34;;;;;;;12.20;3.33;;;;;;;13.50;56.52;102136.25;5041478;28;20013;-82
2023/06/02 08:25:00;;;;;;;12.10;2.80;;;;;;;13.47;55.55;102141.81;5039806;28;20557;-81
2023/06/02 08:27:26;;;;;;;14.43;3.15;;;;;;;13.61;56.10;102143.53;5039394;28;20056;-81
2023/06/02 08:29:53;;;;;;;11.77;3.20;;;;;;;13.76;56.48;102149.66;5041384;28;20018;-82
2023/06/02 08:32:22;;;;;;;11.43;3.00;;;;;;;13.94;57.40;102144.81;5047979;28;20022;-81
2023/06/02 08:34:50;;;;;;;14.27;3.28;;;;;;;14.07;55.17;102153.66;5041529;28;20021;-80
2023/06/02 08:37:19;;;;;;;12.57;3.08;;;;;;;14.19;55.60;102149.31;5039454;28;20025;-82
2023/06/02 08:39:46;;;;;;;16.75;3.40;;;;;;;14.36;54.73;102140.06;5039965;28;20040;-82
2023/06/02 08:42:13;;;;;;;10.57;3.17;;;;;;;14.67;53.92;102127.16;5045668;28;20191;-84
2023/06/02 08:44:40;;;;;;;13.02;3.15;;;;;;;15.04;52.64;102141.34;5042937;28;20022;-80
2023/06/02 08:47:08;;;;;;;11.63;3.20;;;;;;;15.41;51.22;102132.34;5041405;28;20033;-82
2023/06/02 08:49:40;;;;;;;10.65;3.17;;;;;;;15.73;51.12;102130.69;5035318;28;20387;-80
2023/06/02 08:52:15;;;;;;;9.10;2.90;;;;;;;15.91;49.25;102130.28;5044635;28;20230;-81
2023/06/02 08:54:40;;;;;;;9.50;2.83;;;;;;;16.18;48.60;102132.56;5043186;28;20454;-83
2023/06/02 08:57:07;;;;;;;11.63;3.33;;;;;;;16.35;48.57;102133.88;5041692;28;20033;-83
2023/06/02 08:59:33;;;;;;;9.30;2.88;;;;;;;16.28;47.49;102130.84;5041243;28;20036;-82
2023/06/02 09:02:00;;;;;;;10.75;2.83;;;;;;;16.44;48.44;102130.47;5038702;28;20256;-83
2023/06/02 09:04:27;;;;;;;16.83;3.13;;;;;;;16.71;48.30;102120.31;5041150;28;20037;-82
2023/06/02 09:07:11;;;;;;;13.35;3.33;;;;;;;17.01;48.83;102130.34;5055732;28;20025;-83
2023/06/02 09:09:51;;;;;;;16.13;3.38;;;;;;;17.36;47.77;102129.22;5039665;28;20104;-83
2023/06/02 09:12:18;;;;;;;13.65;3.90;;;;;;;17.63;45.95;102128.66;5037285;28;20483;-83
2023/06/02 09:14:45;;;;;;;11.52;3.35;;;;;;;17.88;45.63;102131.94;5040422;28;20056;-83
2023/06/02 09:17:30;;;;;;;12.50;3.28;;;;;;;18.40;46.04;102121.97;5040149;28;20048;-82
2023/06/02 09:20:01;;;;;;;11.43;3.28;;;;;;;18.95;43.59;102116.13;5033510;28;20069;-82
2023/06/02 09:22:26;;;;;;;14.52;3.33;;;;;;;19.32;40.92;102120.78;5038150;28;20021;-82
2023/06/02 09:24:53;;;;;;;11.00;3.17;;;;;;;19.54;40.46;102124.97;5039680;28;20026;-84
2023/06/02 09:27:19;;;;;;;13.02;3.55;;;;;;;19.36;39.94;102115.94;5041545;28;20048;-82
2023/06/02 09:29:48;;;;;;;10.88;3.33;;;;;;;19.29;40.21;102115.66;5041077;28;20042;-81
2023/06/02 09:32:15;;;;;;;14.93;3.30;;;;;;;19.28;41.20;102081.63;5041222;28;20420;-81
2023/06/02 09:34:41;;;;;;;12.80;3.67;;;;;;;19.53;40.45;102111.63;5041306;28;20026;-82
2023/06/02 09:37:14;;;;;;;13.35;3.28;;;;;;;19.33;40.93;102098.19;5037029;28;20033;-81
2023/06/02 09:39:42;;;;;;;12.82;3.20;;;;;;;19.38;40.70;102112.13;5041139;28;20079;-81
2023/06/02 09:42:08;;;;;;;10.45;3.20;;;;;;;19.62;39.79;102118.88;5039702;28;20053;-82
2023/06/02 09:44:33;;;;;;;10.93;3.35;;;;;;;19.88;39.48;102108.28;5038487;28;20411;-82
2023/06/02 09:46:59;;;;;;;10.00;3.08;;;;;;;20.13;39.30;102105.91;5037447;28;20034;-81
2023/06/02 09:49:25;;;;;;;11.15;3.42;;;;;;;20.46;41.25;102112.53;5039335;28;20025;-82
2023/06/02 09:51:50;;;;;;;14.55;3.45;;;;;;;20.33;38.66;102104.81;5032689;28;20037;-82
2023/06/02 09:54:16;;;;;;;9.07;3.15;;;;;;;20.23;38.94;102101.31;5039974;28;20040;-80
2023/06/02 09:56:41;;;;;;;12.43;2.90;;;;;;;20.55;39.97;102107.22;5039302;28;20028;-81
2023/06/02 09:59:07;;;;;;;15.18;3.50;;;;;;;20.81;38.40;102100.09;5040265;28;20464;-82
2023/06/02 10:01:34;;;;;;;13.27;3.22;;;;;;;20.74;38.52;102092.78;5037753;28;20056;-81
2023/06/02 10:04:01;;;;;;;11.98;3.55;;;;;;;20.72;37.78;102101.03;5037229;28;20121;-81
2023/06/02 10:06:40;;;;;;;10.77;3.08;;;;;;;21.08;39.65;102101.00;5034464;28;20041;-80
2023/06/02 10:09:33;;;;;;;11.00;3.65;;;;;;;21.16;40.35;102101.06;5037622;28;20028;-81
2023/06/02 10:12:17;;;;;;;11.63;3.10;;;;;;;20.99;39.40;102102.81;5035246;28;20265;-81
2023/06/02 10:15:26;;;;;;;9.88;3.13;;;;;;;21.22;40.56;102095.06;5037063;28;20041;-81
2023/06/02 10:18:15;;;;;;;10.93;3.10;;;;;;;20.83;38.71;102103.53;4987513;28;20049;-81
2023/06/02 10:21:06;;;;;;;11.18;3.10;;;;;;;20.70;40.25;102092.25;5037848;28;20530;-82
2023/06/02 10:23:52;;;;;;;12.88;3.15;;;;;;;20.64;40.56;102095.56;5045840;28;20044;-81
2023/06/02 10:26:34;;;;;;;12.75;3.50;;;;;;;20.54;39.55;102095.59;5041158;28;20053;-81
2023/06/02 10:29:02;;;;;;;11.38;3.22;;;;;;;20.41;38.86;102106.75;5043183;28;20036;-80
2023/06/02 10:31:31;;;;;;;8.45;3.13;;;;;;;20.50;39.33;102105.84;5032090;28;20053;-81
2023/06/02 10:33:58;;;;;;;12.23;3.25;;;;;;;20.40;39.94;102088.88;5039321;28;20034;-81
2023/06/02 10:36:24;;;;;;;10.18;3.17;;;;;;;20.56;39.65;102096.28;5039660;28;20033;-82
2023/06/02 10:38:50;;;;;;;10.13;3.10;;;;;;;20.34;38.28;102094.88;5039144;28;20065;-82
2023/06/02 10:41:21;;;;;;;9.10;3.40;;;;;;;20.08;39.13;102100.97;5032756;28;20041;-80
2023/06/02 10:44:25;;;;;;;10.25;3.28;;;;;;;20.39;41.04;102092.56;5039309;28;20030;-81
2023/06/02 10:47:18;;;;;;;10.98;3.38;;;;;;;20.83;41.00;102089.16;5038714;28;20549;-81
2023/06/02 10:50:09;;;;;;;11.48;3.00;;;;;;;21.24;40.27;102086.78;5035161;28;20072;-80
2023/06/02 10:53:00;;;;;;;10.52;3.22;;;;;;;21.58;39.44;102086.91;5036054;28;20037;-81
2023/06/02 10:55:27;;;;;;;8.80;3.30;;;;;;;21.50;38.19;102089.53;5032343;28;20499;-81
2023/06/02 10:58:03;;;;;;;11.63;3.50;;;;;;;21.61;38.93;102094.66;5035476;28;20028;-80
2023/06/02 11:02:57;;;;;;;9.48;3.47;;;;;;;21.45;37.70;102091.84;5030144;28;20041;-80
2023/06/02 11:05:27;;;;;;;8.50;3.20;;;;;;;21.26;38.31;102096.41;5033853;28;20033;-81
2023/06/02 11:08:11;;;;;;;12.98;3.95;;;;;;;21.45;39.56;102086.44;5042381;28;20026;-82
2023/06/02 11:10:49;;;;;;;11.10;3.40;;;;;;;21.66;39.50;102079.81;5043559;28;20029;-81
2023/06/02 11:13:19;;;;;;;13.75;3.35;;;;;;;21.85;40.28;102082.31;5033535;28;20037;-79
2023/06/02 11:15:54;;;;;;;13.15;3.25;;;;;;;22.23;39.14;102081.94;5039895;28;20021;-80
2023/06/02 11:18:23;;;;;;;10.95;3.40;;;;;;;22.22;38.11;102081.09;5042196;28;20035;-80
2023/06/02 11:21:00;;;;;;;12.98;3.75;;;;;;;22.21;38.86;102081.25;5033035;28;20056;-81
2023/06/02 11:23:25;;;;;;;10.85;3.33;;;;;;;22.28;37.80;102077.75;5038885;28;20034;-80